createdAt,value
2023-09-20T00:02:25.131Z,82.27
2023-09-20T00:07:28.504Z,82.57
2023-09-20T00:12:33.023Z,82.60
2023-09-20T00:17:46.565Z,82.81
2023-09-20T00:22:55.020Z,83.45
2023-09-20T00:27:59.268Z,84.17
2023-09-20T00:33:01.360Z,84.67
2023-09-20T00:38:03.566Z,85.12
2023-09-20T00:43:06.089Z,85.96
2023-09-20T00:48:12.090Z,87.22
2023-09-20T00:53:15.625Z,87.18
2023-09-20T00:58:29.981Z,87.86
2023-09-20T01:03:36.747Z,88.25
2023-09-20T01:08:46.010Z,88.44
2023-09-20T01:13:48.473Z,88.43
2023-09-20T01:18:58.026Z,88.70
2023-09-20T01:24:05.413Z,88.44
2023-09-20T01:29:07.389Z,89.50
2023-09-20T01:34:09.680Z,90.44
2023-09-20T01:39:14.626Z,91.01
2023-09-20T01:44:16.650Z,91.37
2023-09-20T01:49:23.118Z,90.89
2023-09-20T01:54:24.968Z,91.95
2023-09-20T01:59:26.547Z,92.19
2023-09-20T02:04:30.651Z,92.13
2023-09-20T02:09:32.450Z,93.29
2023-09-20T02:14:34.237Z,93.33
2023-09-20T02:19:39.302Z,93.22
2023-09-20T02:24:42.187Z,93.40
2023-09-20T02:29:43.986Z,93.62
2023-09-20T02:34:45.768Z,93.82
2023-09-20T02:39:48.744Z,93.79
2023-09-20T02:44:50.473Z,93.23
2023-09-20T02:49:52.948Z,93.56
2023-09-20T02:55:04.524Z,94.02
2023-09-20T03:00:08.236Z,93.82
2023-09-20T03:05:10.171Z,93.95
2023-09-20T03:10:13.555Z,93.81
2023-09-20T03:15:18.252Z,94.40
2023-09-20T03:20:22.093Z,93.90
2023-09-20T03:25:25.054Z,94.31
2023-09-20T03:30:26.773Z,95.01
2023-09-20T03:35:28.445Z,95.12
2023-09-20T03:40:32.825Z,94.90
2023-09-20T03:45:34.918Z,95.90
2023-09-20T03:50:39.618Z,95.15
2023-09-20T03:55:43.519Z,95.22
2023-09-20T04:00:46.116Z,95.74
2023-09-20T04:05:48.428Z,95.97
2023-09-20T04:10:53.811Z,96.21
2023-09-20T04:16:00.342Z,95.75
2023-09-20T04:21:05.407Z,97.07
2023-09-20T04:26:22.364Z,96.41
2023-09-20T04:31:25.280Z,97.45
2023-09-20T04:36:28.431Z,97.07
2023-09-20T04:41:31.972Z,97.97
2023-09-20T04:46:33.742Z,98.89
2023-09-20T04:51:38.480Z,99.26
2023-09-20T04:56:43.041Z,98.97
2023-09-20T05:01:44.863Z,99.63
2023-09-20T05:06:50.525Z,99.40
2023-09-20T05:17:16.287Z,99.75
2023-09-20T05:22:18.950Z,100.00
2023-09-20T05:27:24.003Z,100.00
2023-09-20T05:32:26.486Z,100.00
2023-09-20T05:37:31.243Z,100.00
2023-09-20T05:42:37.322Z,100.00
2023-09-20T05:47:40.796Z,99.71
2023-09-20T05:52:42.803Z,100.00
2023-09-20T05:57:45.670Z,99.31
2023-09-20T06:02:47.662Z,99.68
2023-09-20T06:07:49.387Z,99.20
2023-09-20T06:12:51.966Z,100.00
2023-09-20T06:17:53.663Z,99.81
2023-09-20T06:22:56.733Z,99.92
2023-09-20T06:28:12.777Z,99.92
2023-09-20T06:33:20.226Z,98.48
2023-09-20T06:38:25.599Z,99.18
2023-09-20T06:43:27.595Z,98.34
2023-09-20T06:48:29.651Z,96.95
2023-09-20T06:53:34.870Z,96.55
2023-09-20T06:58:36.879Z,94.84
2023-09-20T07:03:38.566Z,93.90
2023-09-20T07:08:40.766Z,92.41
2023-09-20T07:13:44.743Z,91.94
2023-09-20T07:18:46.611Z,90.01
2023-09-20T07:23:48.660Z,89.72
2023-09-20T07:28:53.389Z,87.93
2023-09-20T07:33:55.646Z,87.39
2023-09-20T07:39:05.061Z,86.12
2023-09-20T07:44:07.955Z,85.53
2023-09-20T07:49:10.676Z,84.82
2023-09-20T07:54:12.304Z,85.00
2023-09-20T07:59:13.968Z,84.75
2023-09-20T08:04:16.608Z,83.75
2023-09-20T08:09:18.402Z,82.54
2023-09-20T08:20:01.300Z,80.25
2023-09-20T08:25:01.540Z,79.34
2023-09-20T08:30:03.708Z,77.71
2023-09-20T08:35:06.236Z,76.87
2023-09-20T08:40:08.826Z,77.29
2023-09-20T08:45:12.108Z,75.05
2023-09-20T08:50:13.996Z,74.15
2023-09-20T08:55:19.396Z,74.94
2023-09-20T09:00:22.201Z,72.57
2023-09-20T09:05:29.688Z,73.14
2023-09-20T09:10:34.913Z,71.55
2023-09-20T09:15:44.212Z,64.91
2023-09-20T09:20:49.245Z,62.79
2023-09-20T09:25:51.055Z,61.91
2023-09-20T09:31:13.306Z,57.47
2023-09-20T09:36:15.164Z,52.71
2023-09-20T09:41:17.261Z,42.29
2023-09-20T09:46:19.015Z,36.84
2023-09-20T09:51:40.508Z,40.82
2023-09-20T09:56:49.631Z,42.56
2023-09-20T10:01:51.526Z,39.91
2023-09-20T10:07:01.641Z,37.08
2023-09-20T10:12:04.614Z,41.45
2023-09-20T10:17:06.878Z,43.00
2023-09-20T10:22:10.484Z,40.75
2023-09-20T10:27:17.083Z,39.62
2023-09-20T10:32:22.194Z,41.17
2023-09-20T10:37:33.215Z,43.66
2023-09-20T10:42:58.224Z,43.12
2023-09-20T10:48:11.612Z,47.10
2023-09-20T10:53:19.546Z,48.91
2023-09-20T11:04:01.996Z,49.44
2023-09-20T11:09:04.038Z,50.44
2023-09-20T11:14:07.526Z,51.07
2023-09-20T11:19:13.192Z,51.69
2023-09-20T11:24:15.833Z,50.56
2023-09-20T11:29:31.258Z,50.32
2023-09-20T11:34:49.722Z,52.33
2023-09-20T11:39:53.043Z,51.73
2023-09-20T11:44:56.162Z,51.61
2023-09-20T11:50:00.293Z,52.15
2023-09-20T12:00:45.087Z,52.82
2023-09-20T12:04:07.189Z,52.53
2023-09-20T12:05:56.541Z,52.31
2023-09-20T12:10:59.876Z,51.29
2023-09-20T12:16:13.140Z,51.58
2023-09-20T12:21:16.029Z,51.00
2023-09-20T12:32:06.181Z,47.34
2023-09-20T12:48:41.688Z,42.02
2023-09-20T12:54:00.766Z,43.09
2023-09-20T12:59:13.955Z,42.45
2023-09-20T13:04:37.357Z,40.50
2023-09-20T13:09:49.186Z,39.96
2023-09-20T13:14:53.424Z,37.34
2023-09-20T13:20:00.787Z,37.00
2023-09-20T13:25:10.757Z,35.50
2023-09-20T13:30:25.743Z,37.64
2023-09-20T13:35:36.836Z,39.39
2023-09-20T13:43:11.614Z,39.31
2023-09-20T13:46:16.666Z,39.34
2023-09-20T13:51:24.176Z,39.49
2023-09-20T13:56:39.579Z,39.56
2023-09-20T14:01:41.455Z,40.89
2023-09-20T14:06:50.518Z,39.59
2023-09-20T14:17:07.861Z,41.97
2023-09-20T14:22:12.909Z,43.34
2023-09-20T14:27:26.395Z,46.46
2023-09-20T14:32:28.357Z,47.01
2023-09-20T14:37:37.870Z,47.67
2023-09-20T14:42:56.551Z,48.14
2023-09-20T14:48:04.186Z,47.68
2023-09-20T14:53:13.746Z,47.58
2023-09-20T14:58:43.010Z,46.29
2023-09-20T15:09:40.838Z,44.58
2023-09-20T15:33:11.166Z,47.46
2023-09-20T15:44:12.536Z,48.43
2023-09-20T15:49:42.912Z,49.34
2023-09-20T15:56:07.355Z,49.50
2023-09-20T16:01:31.350Z,49.82
2023-09-20T16:06:41.817Z,50.14
2023-09-20T16:11:45.615Z,49.76
2023-09-20T16:16:53.536Z,50.15
2023-09-20T16:21:58.498Z,50.63
2023-09-20T16:27:00.045Z,50.82
2023-09-20T16:32:20.396Z,51.92
2023-09-20T16:42:39.158Z,52.62
2023-09-20T16:47:41.765Z,52.48
2023-09-20T16:52:43.524Z,52.91
2023-09-20T16:57:46.984Z,53.86
2023-09-20T17:02:49.787Z,54.37
2023-09-20T17:07:52.527Z,54.13
2023-09-20T17:12:53.959Z,55.24
2023-09-20T17:17:56.340Z,55.67
2023-09-20T17:22:58.049Z,56.29
2023-09-20T17:27:59.527Z,58.28
2023-09-20T17:33:01.091Z,58.83
2023-09-20T17:38:02.679Z,60.12
2023-09-20T17:43:04.249Z,61.46
2023-09-20T17:48:06.650Z,62.94
2023-09-20T17:53:08.192Z,64.20
2023-09-20T17:58:09.820Z,64.30
2023-09-20T18:03:11.715Z,65.75
2023-09-20T18:08:13.455Z,64.37
2023-09-20T18:13:15.049Z,65.64
2023-09-20T18:18:18.464Z,65.90
2023-09-20T18:23:20.197Z,67.46
2023-09-20T18:28:21.805Z,67.74
2023-09-20T18:33:23.605Z,68.78
2023-09-20T18:38:25.171Z,68.72
2023-09-20T18:43:26.672Z,68.96
2023-09-20T18:48:28.348Z,70.09
2023-09-20T18:53:30.022Z,70.31
2023-09-20T18:58:31.626Z,71.32
2023-09-20T19:03:33.485Z,72.05
2023-09-20T19:08:35.181Z,72.20
2023-09-20T19:13:36.669Z,73.00
2023-09-20T19:18:50.552Z,73.56
2023-09-20T19:23:53.124Z,74.48
2023-09-20T19:28:54.611Z,74.96
2023-09-20T19:33:56.817Z,75.05
2023-09-20T19:38:58.479Z,75.87
2023-09-20T19:44:04.119Z,76.22
2023-09-20T19:49:08.879Z,76.67
2023-09-20T19:54:10.904Z,76.73
2023-09-20T19:59:12.525Z,76.15
2023-09-20T20:04:14.356Z,77.11
2023-09-20T20:09:16.334Z,77.62
2023-09-20T20:14:17.858Z,77.73
2023-09-20T20:19:19.428Z,77.71
2023-09-20T20:24:20.892Z,78.29
2023-09-20T20:29:22.502Z,78.22
2023-09-20T20:34:24.216Z,78.57
2023-09-20T20:39:29.613Z,79.03
2023-09-20T20:44:31.167Z,78.05
2023-09-20T20:49:33.019Z,78.64
2023-09-20T20:54:34.639Z,78.38
2023-09-20T20:59:39.779Z,78.15
2023-09-20T21:04:41.297Z,78.01
2023-09-20T21:09:42.719Z,77.91
2023-09-20T21:14:44.477Z,78.05
2023-09-20T21:19:46.101Z,77.69
2023-09-20T21:24:47.726Z,77.84
2023-09-20T21:29:49.510Z,77.79
2023-09-20T21:34:51.523Z,77.53
2023-09-20T21:39:53.207Z,77.54
2023-09-20T21:44:54.935Z,77.02
2023-09-20T21:49:57.798Z,77.03
2023-09-20T21:54:59.356Z,77.24
2023-09-20T22:00:01.169Z,77.50
2023-09-20T22:05:02.797Z,77.91
2023-09-20T22:10:04.471Z,77.72
2023-09-20T22:15:10.159Z,78.30
2023-09-20T22:20:13.720Z,78.50
2023-09-20T22:25:16.177Z,78.67
2023-09-20T22:30:18.047Z,79.63
2023-09-20T22:35:19.594Z,78.97
2023-09-20T22:40:21.430Z,79.98
2023-09-20T22:45:23.641Z,80.24
2023-09-20T22:50:25.832Z,79.61
2023-09-20T22:55:27.350Z,80.13
2023-09-20T23:00:30.072Z,79.97
2023-09-20T23:05:31.682Z,80.35
2023-09-20T23:10:34.984Z,80.57
2023-09-20T23:15:38.837Z,80.86
2023-09-20T23:20:40.435Z,81.27
2023-09-20T23:25:42.744Z,81.73
2023-09-20T23:30:46.260Z,82.35
2023-09-20T23:35:52.975Z,83.13
2023-09-20T23:41:04.842Z,83.12
2023-09-20T23:46:07.552Z,83.00
2023-09-20T23:51:09.140Z,83.37
2023-09-20T23:56:11.830Z,82.64
